Capitol Logistics 543




RKSI
Incheon International Airport
Seoul, KR
ZGGG
Guangzhou Baiyun International Airport
Guangzhou, CN

Activity Log

Date Flight Route Aircraft Duration
No Flights Yet

Route Details

Aircraft Information
Group: Trans-Pacific Ops
Types: B744,B763,MD11
Route Data
Demand: V
Distance: 1084nm
Duration: 3h 20m
Recm'd Route: BOPT1H BOPTA Z51 BEDES Y711 PONIK A593 PUD A599 LURMA V77 WY W508 DUBGO W134 ELNEX A599 PLT W19 MABAG W44 OLPAB OLPA1P
Origin Wx: RKSI 272230Z 13008KT 4500 BR FEW008 SCT180 18/16 Q1005 NOSIG
Dest. Wx: ZGGG 272230Z VRB01MPS 7000 BKN023 26/26 Q1004 NOSIG
Notes:

Financial History
Total Freight: 0lbs
Average Load: 0lbs/flt
Fuel Used: 0lbs
Avg. Fuel Used: 0lbs/flt
Fuel Expense: $0
Avg. Fuel Expense: $0
Avg. Fuel Cost: $0/lbs
Total Gross Income: $0
Pilot Pay: $0
Total Expenses: $0
Total Revenue: $0
Average Revenue: $0